Time;durP1;ratioP1;P1;durP2;ratioP2;P2;SDS_P1;SDS_P2;PMS_P1;PMS_P2;Temp;Humidity;BMP_temperature;BMP_pressure;BME280_temperature;BME280_humidity;BME280_pressure;Samples;Min_cycle;Max_cycle;Signal;HPM_P1;HPM_P2
2023/03/01 00:01:42;;;;;;;7.03;6.13;;;2.20;59.50;;;;;;926684;151;27749;-75
2023/03/01 00:04:08;;;;;;;7.63;6.57;;;2.20;59.50;;;;;;941770;148;27317;-75
2023/03/01 00:06:35;;;;;;;8.07;5.90;;;2.20;59.40;;;;;;935405;151;27306;-75
2023/03/01 00:09:02;;;;;;;8.20;6.33;;;2.30;59.50;;;;;;928238;154;27258;-76
2023/03/01 00:11:28;;;;;;;6.20;5.60;;;2.30;59.50;;;;;;928711;154;27374;-75
2023/03/01 00:13:55;;;;;;;7.03;6.23;;;2.30;59.60;;;;;;935077;152;27328;-75
2023/03/01 00:16:21;;;;;;;7.17;5.97;;;2.30;59.50;;;;;;933677;152;27319;-76
2023/03/01 00:18:48;;;;;;;7.20;6.50;;;2.30;59.60;;;;;;932733;152;27338;-76
2023/03/01 00:21:14;;;;;;;8.30;5.77;;;2.40;59.60;;;;;;929676;154;27361;-76
2023/03/01 00:23:41;;;;;;;6.93;5.70;;;2.40;59.70;;;;;;929246;154;27369;-75
2023/03/01 00:26:08;;;;;;;6.53;5.50;;;2.40;59.70;;;;;;944363;148;27304;-75
2023/03/01 00:28:34;;;;;;;6.33;5.60;;;2.40;59.80;;;;;;933107;152;27407;-75
2023/03/01 00:31:04;;;;;;;7.53;5.93;;;2.50;60.00;;;;;;933822;152;27295;-76
2023/03/01 00:33:30;;;;;;;9.43;6.43;;;2.50;60.00;;;;;;931165;152;27455;-75
2023/03/01 00:35:57;;;;;;;7.67;6.27;;;2.50;60.00;;;;;;928034;154;27402;-75
2023/03/01 00:38:23;;;;;;;8.50;6.37;;;2.50;60.00;;;;;;927432;154;27309;-75
2023/03/01 00:40:50;;;;;;;9.90;7.00;;;2.50;60.00;;;;;;933242;152;27379;-76
2023/03/01 00:43:17;;;;;;;8.17;6.87;;;2.50;60.00;;;;;;934688;152;27475;-77
2023/03/01 00:45:43;;;;;;;8.00;6.23;;;2.50;60.10;;;;;;934388;152;27939;-75
2023/03/01 00:48:10;;;;;;;7.27;5.93;;;2.50;61.00;;;;;;932478;154;27286;-75
2023/03/01 00:50:36;;;;;;;7.87;6.47;;;2.50;60.20;;;;;;932743;154;27297;-76
2023/03/01 00:53:04;;;;;;;6.27;5.60;;;2.50;60.30;;;;;;932745;153;27290;-76
2023/03/01 00:55:30;;;;;;;6.50;5.83;;;2.50;60.20;;;;;;933012;152;27423;-75
2023/03/01 00:57:56;;;;;;;7.27;6.40;;;2.50;60.20;;;;;;934219;152;27383;-76
2023/03/01 01:00:23;;;;;;;6.67;6.00;;;2.50;60.30;;;;;;933887;152;27441;-75
2023/03/01 01:02:49;;;;;;;7.17;5.90;;;2.50;60.30;;;;;;926818;154;27313;-76
2023/03/01 01:05:20;;;;;;;7.10;5.77;;;2.50;60.40;;;;;;935155;151;27421;-75
2023/03/01 01:07:42;;;;;;;6.83;6.10;;;2.50;60.40;;;;;;932307;152;27443;-75
2023/03/01 01:10:12;;;;;;;7.63;6.03;;;2.40;60.30;;;;;;932778;152;27374;-76
2023/03/01 01:12:37;;;;;;;6.97;5.70;;;2.40;60.40;;;;;;932154;152;27425;-75
2023/03/01 01:15:02;;;;;;;8.03;6.37;;;2.40;60.50;;;;;;932708;152;27384;-77
2023/03/01 01:17:29;;;;;;;7.60;6.53;;;2.40;60.50;;;;;;934872;152;27494;-75
2023/03/01 01:19:56;;;;;;;6.80;6.07;;;2.40;60.50;;;;;;930993;152;27401;-76
2023/03/01 01:22:22;;;;;;;6.20;5.57;;;2.40;60.60;;;;;;932760;152;27407;-75
2023/03/01 01:24:49;;;;;;;6.50;5.73;;;2.40;60.50;;;;;;932767;152;28361;-76
2023/03/01 01:27:15;;;;;;;6.00;5.40;;;2.40;60.70;;;;;;934717;152;27462;-75
2023/03/01 01:29:42;;;;;;;8.13;5.97;;;2.40;60.70;;;;;;933771;152;27432;-75
2023/03/01 01:32:08;;;;;;;6.83;6.00;;;2.40;60.80;;;;;;933603;152;27336;-75
2023/03/01 01:34:35;;;;;;;7.17;6.20;;;2.40;60.80;;;;;;935802;152;27313;-75
2023/03/01 01:37:02;;;;;;;6.77;5.97;;;2.40;60.80;;;;;;933823;152;27306;-77
2023/03/01 01:39:28;;;;;;;8.33;5.73;;;2.40;60.90;;;;;;925430;151;27452;-75
2023/03/01 01:41:55;;;;;;;8.47;6.27;;;2.50;61.00;;;;;;932491;152;27436;-75
2023/03/01 01:44:23;;;;;;;7.50;6.40;;;2.50;61.30;;;;;;934264;152;27287;-76
2023/03/01 01:46:51;;;;;;;7.13;6.07;;;2.50;60.70;;;;;;932544;151;27306;-76
2023/03/01 01:49:35;;;;;;;7.47;5.77;;;2.50;60.70;;;;;;933132;152;27794;-75
2023/03/01 01:52:11;;;;;;;6.10;5.50;;;2.50;60.80;;;;;;932533;152;27404;-75
2023/03/01 01:54:37;;;;;;;6.67;5.57;;;2.60;60.70;;;;;;935285;151;27339;-75
2023/03/01 01:57:04;;;;;;;6.30;5.70;;;2.60;60.60;;;;;;923273;154;27259;-77
2023/03/01 01:59:30;;;;;;;7.70;5.93;;;2.60;60.50;;;;;;942820;151;27336;-75
2023/03/01 02:01:57;;;;;;;7.80;6.87;;;2.70;60.70;;;;;;933908;152;27400;-76
2023/03/01 02:04:25;;;;;;;7.13;6.43;;;2.70;60.60;;;;;;933854;152;27832;-75
2023/03/01 02:06:50;;;;;;;9.77;6.27;;;2.70;60.60;;;;;;937205;149;27354;-76
2023/03/01 02:09:17;;;;;;;7.53;6.73;;;2.80;60.80;;;;;;939058;149;27458;-75
2023/03/01 02:11:43;;;;;;;9.07;6.90;;;2.80;60.50;;;;;;940927;149;27387;-75
2023/03/01 02:14:10;;;;;;;10.47;6.50;;;2.80;60.50;;;;;;939574;149;27398;-75
2023/03/01 02:16:36;;;;;;;7.07;5.67;;;2.80;60.50;;;;;;939745;149;27874;-76
2023/03/01 02:19:04;;;;;;;7.17;6.47;;;2.80;60.50;;;;;;940573;149;27337;-76
2023/03/01 02:21:38;;;;;;;9.93;6.87;;;2.80;60.50;;;;;;941136;149;27888;-75
2023/03/01 02:24:05;;;;;;;7.07;6.37;;;2.80;60.50;;;;;;944356;147;27413;-75
2023/03/01 02:26:34;;;;;;;6.67;6.07;;;2.80;60.60;;;;;;936248;149;27343;-75
2023/03/01 02:29:01;;;;;;;8.30;6.80;;;2.80;60.50;;;;;;927561;149;27452;-76
2023/03/01 02:31:42;;;;;;;7.77;6.63;;;2.80;60.40;;;;;;939464;149;27470;-75
2023/03/01 02:34:12;;;;;;;8.97;6.43;;;2.80;60.40;;;;;;940505;149;27387;-75
2023/03/01 02:36:38;;;;;;;10.73;6.87;;;2.80;60.30;;;;;;941313;149;27395;-76
2023/03/01 02:39:05;;;;;;;8.30;6.03;;;2.80;60.70;;;;;;941771;149;27366;-75
2023/03/01 02:41:31;;;;;;;7.20;5.87;;;2.80;60.80;;;;;;926727;150;27465;-75
2023/03/01 02:43:58;;;;;;;7.80;7.00;;;2.80;60.90;;;;;;943189;147;27273;-76
2023/03/01 02:46:25;;;;;;;7.83;6.63;;;2.80;61.10;;;;;;939298;149;27254;-76
2023/03/01 02:48:51;;;;;;;7.80;6.17;;;2.80;61.10;;;;;;939573;149;27425;-76
2023/03/01 02:51:36;;;;;;;7.87;6.73;;;2.80;61.10;;;;;;940178;148;27410;-75
2023/03/01 02:54:12;;;;;;;8.70;6.73;;;2.80;61.10;;;;;;941072;149;27777;-75
2023/03/01 02:56:38;;;;;;;7.40;6.20;;;2.70;61.00;;;;;;939532;149;27297;-76
2023/03/01 02:59:05;;;;;;;7.70;6.63;;;2.70;61.00;;;;;;939239;149;27458;-76
2023/03/01 03:01:37;;;;;;;7.40;5.80;;;2.70;61.00;;;;;;939467;149;27343;-76
2023/03/01 03:04:04;;;;;;;7.73;6.13;;;2.70;61.00;;;;;;926131;149;27411;-75
2023/03/01 03:06:30;;;;;;;10.27;7.43;;;2.70;60.90;;;;;;928064;149;27478;-75
2023/03/01 03:08:57;;;;;;;8.17;6.93;;;2.70;60.80;;;;;;927144;154;27281;-75
2023/03/01 03:11:23;;;;;;;9.30;7.60;;;2.70;60.80;;;;;;934229;152;27299;-76
2023/03/01 03:13:51;;;;;;;8.97;7.67;;;2.70;60.70;;;;;;936012;152;27481;-76
2023/03/01 03:16:17;;;;;;;8.90;6.97;;;2.80;60.80;;;;;;934632;152;27309;-75
2023/03/01 03:18:43;;;;;;;7.47;6.33;;;2.80;60.80;;;;;;932641;152;27377;-75
2023/03/01 03:21:12;;;;;;;8.50;6.57;;;2.80;60.80;;;;;;934814;151;27339;-76
2023/03/01 03:23:39;;;;;;;9.07;7.30;;;2.80;60.70;;;;;;933662;152;27470;-75
2023/03/01 03:26:06;;;;;;;9.80;7.50;;;2.90;60.70;;;;;;932434;152;27429;-76
2023/03/01 03:28:32;;;;;;;10.27;7.60;;;2.90;60.70;;;;;;934984;151;27305;-75
2023/03/01 03:31:03;;;;;;;9.93;7.00;;;2.90;60.70;;;;;;932070;152;27352;-76
2023/03/01 03:33:25;;;;;;;9.77;7.50;;;2.90;60.70;;;;;;931809;152;27451;-75
2023/03/01 03:35:52;;;;;;;7.50;6.80;;;2.90;60.50;;;;;;933070;152;27375;-75
2023/03/01 03:38:19;;;;;;;8.23;7.30;;;3.00;60.50;;;;;;931188;152;27405;-75
2023/03/01 03:40:45;;;;;;;9.03;8.07;;;3.00;60.60;;;;;;933536;152;27344;-75
2023/03/01 03:43:17;;;;;;;9.77;7.93;;;3.00;60.50;;;;;;933922;151;27369;-77
2023/03/01 03:45:44;;;;;;;9.73;7.33;;;3.00;60.70;;;;;;924375;154;27350;-75
2023/03/01 03:48:11;;;;;;;10.03;7.33;;;3.00;60.70;;;;;;942988;151;27362;-75
2023/03/01 03:50:40;;;;;;;7.67;6.87;;;3.00;60.80;;;;;;934349;153;27298;-75
2023/03/01 03:53:06;;;;;;;8.37;7.23;;;3.00;60.90;;;;;;932891;153;27353;-75
2023/03/01 03:55:33;;;;;;;8.20;7.30;;;3.00;60.80;;;;;;931161;153;28686;-76
2023/03/01 03:58:02;;;;;;;8.23;7.30;;;3.00;60.90;;;;;;931640;153;27254;-77
2023/03/01 04:00:26;;;;;;;7.93;6.47;;;3.00;61.00;;;;;;933611;153;27813;-77
2023/03/01 04:02:56;;;;;;;9.23;7.80;;;3.00;60.90;;;;;;931814;151;27350;-77
2023/03/01 04:05:19;;;;;;;8.53;7.00;;;3.00;60.90;;;;;;931798;153;27365;-77
2023/03/01 04:07:46;;;;;;;9.60;7.20;;;3.00;61.00;;;;;;935538;149;27490;-77
2023/03/01 04:10:15;;;;;;;8.93;7.40;;;3.00;61.00;;;;;;942381;147;27697;-77
2023/03/01 04:12:44;;;;;;;8.80;7.27;;;3.00;61.00;;;;;;928852;151;27390;-77
2023/03/01 04:15:14;;;;;;;8.40;7.30;;;3.00;61.00;;;;;;941219;149;27483;-77
2023/03/01 04:17:41;;;;;;;7.77;6.97;;;3.00;61.00;;;;;;938037;149;27321;-77
2023/03/01 04:20:13;;;;;;;8.00;6.63;;;2.90;61.00;;;;;;939569;149;27345;-77
2023/03/01 04:22:40;;;;;;;7.67;6.67;;;2.90;60.90;;;;;;944095;147;27320;-77
2023/03/01 04:25:06;;;;;;;10.00;7.13;;;2.90;61.40;;;;;;939993;149;27486;-77
2023/03/01 04:27:33;;;;;;;9.67;7.70;;;2.90;61.00;;;;;;939151;149;27399;-77
2023/03/01 04:30:00;;;;;;;9.47;7.43;;;2.90;61.10;;;;;;924849;149;27407;-77
2023/03/01 04:32:26;;;;;;;10.87;8.07;;;2.90;61.00;;;;;;939693;149;27323;-77
2023/03/01 04:34:53;;;;;;;11.97;7.97;;;2.90;61.00;;;;;;938617;149;27473;-77
2023/03/01 04:37:19;;;;;;;9.57;7.60;;;2.90;61.10;;;;;;940069;148;27916;-77
2023/03/01 04:39:47;;;;;;;9.10;7.60;;;2.80;60.90;;;;;;939093;149;27302;-77
2023/03/01 04:42:13;;;;;;;11.10;7.90;;;2.80;61.00;;;;;;939762;149;27282;-77
2023/03/01 04:44:39;;;;;;;9.93;8.43;;;2.80;61.00;;;;;;933004;149;27314;-77
2023/03/01 04:47:06;;;;;;;10.20;7.60;;;2.80;61.00;;;;;;938182;148;27383;-77
2023/03/01 04:49:32;;;;;;;8.87;7.57;;;2.80;61.10;;;;;;938205;148;27399;-77
2023/03/01 04:52:01;;;;;;;11.00;7.97;;;2.80;61.10;;;;;;939676;149;27475;-77
2023/03/01 04:54:26;;;;;;;9.40;8.33;;;2.80;61.10;;;;;;939342;149;27414;-77
2023/03/01 04:56:52;;;;;;;10.90;8.77;;;2.90;61.20;;;;;;938841;149;27386;-77
2023/03/01 04:59:22;;;;;;;7.57;6.87;;;2.90;61.10;;;;;;938548;149;27368;-77
2023/03/01 05:01:45;;;;;;;8.37;7.07;;;2.90;61.30;;;;;;940189;149;27298;-77
2023/03/01 05:04:12;;;;;;;10.07;8.07;;;2.90;61.20;;;;;;939596;149;27307;-76
2023/03/01 05:06:39;;;;;;;9.90;7.50;;;2.90;61.20;;;;;;940001;149;27374;-77
2023/03/01 05:09:05;;;;;;;11.43;7.67;;;2.90;61.30;;;;;;940175;149;27412;-77
2023/03/01 05:11:35;;;;;;;9.63;7.77;;;2.80;61.30;;;;;;938472;149;27282;-77
2023/03/01 05:13:58;;;;;;;8.33;7.27;;;2.90;61.10;;;;;;939579;149;27380;-77
2023/03/01 05:16:25;;;;;;;8.63;7.67;;;2.80;61.10;;;;;;940045;149;27326;-77
2023/03/01 05:18:51;;;;;;;10.17;8.00;;;2.80;61.20;;;;;;926401;149;27417;-77
2023/03/01 05:21:18;;;;;;;9.67;8.10;;;2.80;61.10;;;;;;937390;149;27372;-77
2023/03/01 05:23:44;;;;;;;9.37;7.77;;;2.80;61.30;;;;;;937035;148;27776;-77
2023/03/01 05:26:12;;;;;;;9.77;7.80;;;2.70;61.10;;;;;;939743;149;27297;-77
2023/03/01 05:28:38;;;;;;;10.27;8.53;;;2.70;61.10;;;;;;940935;149;27408;-77
2023/03/01 05:31:09;;;;;;;11.70;8.90;;;2.70;61.30;;;;;;939191;149;27522;-77
2023/03/01 05:33:31;;;;;;;10.00;8.67;;;2.70;61.40;;;;;;939408;149;27411;-77
2023/03/01 05:35:57;;;;;;;11.37;9.00;;;2.70;61.40;;;;;;938725;150;27298;-77
2023/03/01 05:38:24;;;;;;;9.53;8.27;;;2.70;61.50;;;;;;939606;148;27378;-77
2023/03/01 05:40:51;;;;;;;10.50;7.93;;;2.70;61.60;;;;;;939172;151;27702;-77
2023/03/01 05:43:17;;;;;;;9.27;7.67;;;2.70;61.60;;;;;;939733;151;27361;-77
2023/03/01 05:45:44;;;;;;;11.20;7.90;;;2.70;61.70;;;;;;940022;148;27262;-76
2023/03/01 05:48:10;;;;;;;9.20;8.13;;;2.70;61.80;;;;;;939376;149;27438;-77
2023/03/01 05:50:37;;;;;;;12.63;9.20;;;2.70;61.90;;;;;;937615;149;27337;-77
2023/03/01 05:53:05;;;;;;;11.50;9.00;;;2.70;61.90;;;;;;938848;149;27369;-77
2023/03/01 05:55:30;;;;;;;10.23;8.20;;;2.80;61.90;;;;;;938539;148;27382;-77
2023/03/01 05:58:00;;;;;;;12.00;8.33;;;2.80;62.00;;;;;;941180;151;27339;-77
2023/03/01 06:00:26;;;;;;;11.73;8.63;;;2.80;62.60;;;;;;937256;148;27924;-77
2023/03/01 06:02:53;;;;;;;10.00;7.63;;;2.80;61.80;;;;;;939507;151;27381;-77
2023/03/01 06:05:19;;;;;;;9.40;8.13;;;2.80;61.90;;;;;;940624;148;28026;-77
2023/03/01 06:07:46;;;;;;;9.93;8.37;;;2.80;61.90;;;;;;939344;148;27406;-76
2023/03/01 06:10:12;;;;;;;13.37;8.33;;;2.90;62.00;;;;;;933712;149;27310;-77
2023/03/01 06:12:39;;;;;;;9.37;7.97;;;2.90;62.00;;;;;;934902;151;27397;-76
2023/03/01 06:15:06;;;;;;;9.90;8.20;;;2.90;62.00;;;;;;921133;154;27376;-76
2023/03/01 06:17:32;;;;;;;9.50;8.07;;;2.90;61.90;;;;;;942373;151;27405;-76
2023/03/01 06:19:59;;;;;;;10.33;8.67;;;3.00;61.90;;;;;;925442;152;27330;-77
2023/03/01 06:22:25;;;;;;;9.63;7.97;;;3.00;61.80;;;;;;941944;151;27340;-77
2023/03/01 06:24:52;;;;;;;11.83;9.50;;;3.00;61.80;;;;;;932263;152;27383;-77
2023/03/01 06:27:19;;;;;;;10.00;8.70;;;3.10;61.80;;;;;;941511;151;27488;-77
2023/03/01 06:29:45;;;;;;;9.73;7.83;;;3.10;61.80;;;;;;932565;152;27267;-77
2023/03/01 06:32:12;;;;;;;9.17;8.23;;;3.20;61.80;;;;;;932537;151;28800;-77
2023/03/01 06:34:38;;;;;;;10.03;8.10;;;3.20;61.90;;;;;;933870;152;27303;-77
2023/03/01 06:37:05;;;;;;;9.03;7.93;;;3.30;62.00;;;;;;933086;150;27446;-77
2023/03/01 06:39:31;;;;;;;10.77;7.90;;;3.40;62.10;;;;;;932668;151;27332;-77
2023/03/01 06:41:58;;;;;;;10.53;8.47;;;3.60;62.40;;;;;;931674;152;27332;-77
2023/03/01 06:44:24;;;;;;;9.70;8.70;;;3.80;63.30;;;;;;932057;152;27404;-77
2023/03/01 06:46:51;;;;;;;10.17;8.60;;;4.10;62.80;;;;;;932213;151;27366;-77
2023/03/01 06:49:18;;;;;;;9.47;8.30;;;4.30;62.80;;;;;;931693;152;27839;-77
2023/03/01 06:51:44;;;;;;;11.90;8.63;;;4.60;62.90;;;;;;931425;152;27468;-77
2023/03/01 06:54:11;;;;;;;10.23;8.27;;;4.90;62.60;;;;;;931908;152;27372;-77
2023/03/01 06:56:37;;;;;;;11.57;9.17;;;5.20;62.30;;;;;;931886;152;27314;-77
2023/03/01 06:59:04;;;;;;;10.90;8.90;;;5.50;62.00;;;;;;933180;152;27476;-77
2023/03/01 07:01:31;;;;;;;9.67;8.67;;;5.80;61.60;;;;;;933296;152;27355;-77
2023/03/01 07:03:57;;;;;;;11.03;9.23;;;6.00;61.20;;;;;;932538;151;27372;-77
2023/03/01 07:06:24;;;;;;;11.47;8.30;;;6.30;60.90;;;;;;934285;151;27335;-77
2023/03/01 07:08:50;;;;;;;9.70;8.70;;;6.60;60.90;;;;;;932437;151;27383;-79
2023/03/01 07:11:17;;;;;;;10.47;8.20;;;6.90;61.00;;;;;;925197;150;27368;-79
2023/03/01 07:13:44;;;;;;;9.77;8.27;;;7.20;61.00;;;;;;943935;149;27268;-77
2023/03/01 07:16:10;;;;;;;9.97;8.13;;;7.60;60.90;;;;;;940857;149;27310;-77
2023/03/01 07:18:37;;;;;;;9.97;8.77;;;8.10;60.80;;;;;;940347;148;27480;-77
2023/03/01 07:21:06;;;;;;;11.43;9.03;;;8.50;60.50;;;;;;939720;149;27466;-77
2023/03/01 07:23:33;;;;;;;9.40;8.27;;;8.90;60.00;;;;;;939436;149;27408;-76
2023/03/01 07:26:00;;;;;;;9.77;8.77;;;9.40;59.50;;;;;;938792;148;27404;-76
2023/03/01 07:28:26;;;;;;;11.37;10.17;;;9.80;59.20;;;;;;923723;153;27289;-76
2023/03/01 07:30:53;;;;;;;10.97;9.80;;;10.20;58.60;;;;;;928414;148;27413;-76
2023/03/01 07:33:19;;;;;;;11.70;9.83;;;10.50;58.50;;;;;;940168;149;27369;-77
2023/03/01 07:35:46;;;;;;;10.27;9.17;;;10.90;58.20;;;;;;938540;149;27295;-76
2023/03/01 07:38:12;;;;;;;11.20;9.27;;;11.30;57.80;;;;;;940582;149;27350;-77
2023/03/01 07:40:39;;;;;;;11.60;9.37;;;11.80;57.20;;;;;;940233;149;27351;-77
2023/03/01 07:43:06;;;;;;;9.97;8.97;;;12.10;57.00;;;;;;938370;152;27473;-77
2023/03/01 07:45:32;;;;;;;9.47;8.50;;;12.50;56.70;;;;;;938225;149;27272;-77
2023/03/01 07:47:59;;;;;;;9.43;8.53;;;12.80;55.40;;;;;;937958;149;27989;-77
2023/03/01 07:50:25;;;;;;;8.77;7.87;;;13.10;54.90;;;;;;940419;148;27396;-77
2023/03/01 07:52:52;;;;;;;10.20;9.07;;;13.30;54.50;;;;;;940787;149;27488;-77
2023/03/01 07:55:19;;;;;;;8.97;8.03;;;13.50;54.00;;;;;;938545;148;27375;-77
2023/03/01 07:57:45;;;;;;;8.70;7.80;;;13.80;53.80;;;;;;939292;149;27303;-77
2023/03/01 08:00:12;;;;;;;9.85;8.28;;;14.00;53.70;;;;;;940347;148;27417;-77
2023/03/01 08:02:40;;;;;;;10.20;8.78;;;14.20;53.50;;;;;;941546;149;27387;-77
2023/03/01 08:05:05;;;;;;;9.85;8.88;;;14.50;53.40;;;;;;939294;149;27384;-77
2023/03/01 08:07:31;;;;;;;9.03;8.13;;;14.70;52.90;;;;;;937004;149;27393;-77
2023/03/01 08:09:58;;;;;;;8.87;8.00;;;14.90;52.60;;;;;;940076;149;27312;-77
2023/03/01 08:12:27;;;;;;;10.70;8.90;;;15.10;52.20;;;;;;939972;148;27490;-77
2023/03/01 08:14:51;;;;;;;9.20;8.15;;;15.20;51.80;;;;;;940116;149;27378;-77
2023/03/01 08:17:18;;;;;;;9.03;7.90;;;15.30;51.60;;;;;;941240;149;27302;-77
2023/03/01 08:19:44;;;;;;;11.10;9.50;;;15.50;51.50;;;;;;940066;149;27380;-77
2023/03/01 08:22:11;;;;;;;11.50;8.55;;;15.70;50.90;;;;;;938252;149;27376;-77
2023/03/01 08:24:38;;;;;;;9.85;8.18;;;15.80;50.40;;;;;;939643;149;27391;-77
2023/03/01 08:27:04;;;;;;;9.65;8.30;;;15.90;49.60;;;;;;939937;149;27361;-77
2023/03/01 08:29:31;;;;;;;10.08;9.13;;;16.00;49.70;;;;;;939557;149;27435;-77
2023/03/01 08:31:57;;;;;;;10.13;9.05;;;16.10;48.40;;;;;;939439;149;27310;-77
2023/03/01 08:34:24;;;;;;;9.85;8.68;;;16.10;48.70;;;;;;939343;149;27966;-77
2023/03/01 08:36:52;;;;;;;8.70;7.78;;;16.10;48.80;;;;;;927342;150;27356;-77
2023/03/01 08:39:18;;;;;;;9.30;8.38;;;16.20;48.70;;;;;;940424;149;27259;-77
2023/03/01 08:41:44;;;;;;;8.83;7.92;;;16.30;48.20;;;;;;940164;149;27278;-77
2023/03/01 08:44:10;;;;;;;9.28;7.67;;;16.30;48.40;;;;;;939897;148;27319;-77
2023/03/01 08:46:37;;;;;;;8.33;7.47;;;16.40;48.70;;;;;;940702;151;27357;-77
2023/03/01 08:49:09;;;;;;;8.35;7.55;;;16.50;48.70;;;;;;940060;149;27280;-77
2023/03/01 08:51:39;;;;;;;8.43;7.62;;;16.60;48.60;;;;;;940427;149;27326;-78
2023/03/01 08:54:05;;;;;;;8.83;7.95;;;16.80;48.70;;;;;;940149;149;27870;-77
2023/03/01 08:56:32;;;;;;;7.85;7.15;;;16.90;48.10;;;;;;925462;150;27377;-78
2023/03/01 08:58:58;;;;;;;8.80;7.97;;;17.00;47.80;;;;;;943853;147;28532;-77
2023/03/01 09:01:25;;;;;;;8.43;7.70;;;17.10;47.70;;;;;;940172;149;27320;-78
2023/03/01 09:03:52;;;;;;;8.45;7.65;;;17.20;47.40;;;;;;940053;149;27291;-77
2023/03/01 09:06:18;;;;;;;10.48;9.25;;;17.20;47.30;;;;;;940480;149;27394;-77
2023/03/01 09:08:45;;;;;;;8.73;7.83;;;17.30;46.80;;;;;;938438;149;27779;-77
2023/03/01 09:11:11;;;;;;;9.78;7.83;;;17.40;47.10;;;;;;924295;150;27431;-77
2023/03/01 09:13:38;;;;;;;8.60;7.80;;;17.50;47.20;;;;;;942714;147;27364;-77
2023/03/01 09:16:05;;;;;;;8.28;7.45;;;17.50;46.20;;;;;;939168;149;27298;-78
2023/03/01 09:18:31;;;;;;;7.40;6.67;;;17.60;46.50;;;;;;939432;149;27438;-77
2023/03/01 09:21:10;;;;;;;7.85;7.08;;;17.70;46.10;;;;;;938661;149;27412;-77
2023/03/01 09:23:38;;;;;;;9.28;6.95;;;17.80;46.30;;;;;;940317;149;27383;-77
2023/03/01 09:26:03;;;;;;;9.80;7.85;;;17.90;46.40;;;;;;939772;149;27318;-78
2023/03/01 09:28:29;;;;;;;8.55;7.75;;;18.00;46.20;;;;;;941065;149;27501;-78
2023/03/01 09:30:59;;;;;;;8.40;7.60;;;18.00;45.80;;;;;;938342;149;27340;-78
2023/03/01 09:33:25;;;;;;;8.23;7.53;;;18.20;46.10;;;;;;938462;149;27367;-78
2023/03/01 09:35:58;;;;;;;8.50;7.12;;;18.20;45.90;;;;;;940627;149;27286;-78
2023/03/01 09:38:24;;;;;;;7.78;7.03;;;18.30;46.00;;;;;;941692;149;27456;-78
2023/03/01 09:40:51;;;;;;;9.35;7.45;;;18.40;46.10;;;;;;942610;149;27439;-78
2023/03/01 09:43:36;;;;;;;7.95;7.00;;;18.50;44.60;;;;;;938969;149;27339;-78
2023/03/01 09:46:05;;;;;;;8.55;7.75;;;18.60;45.40;;;;;;939757;151;27371;-78
2023/03/01 09:48:32;;;;;;;9.45;8.45;;;18.60;44.70;;;;;;939621;149;27395;-78
2023/03/01 09:50:59;;;;;;;8.60;7.22;;;18.60;44.60;;;;;;938190;149;27375;-78
2023/03/01 09:53:25;;;;;;;8.65;7.78;;;18.50;44.50;;;;;;940197;149;27664;-78
2023/03/01 09:56:10;;;;;;;8.98;8.03;;;18.40;43.40;;;;;;937546;149;27324;-78
2023/03/01 09:58:54;;;;;;;9.40;7.28;;;18.20;43.60;;;;;;919899;151;27346;-78
2023/03/01 10:01:44;;;;;;;8.50;7.70;;;18.00;44.00;;;;;;921568;151;27449;-78
2023/03/01 10:04:20;;;;;;;9.55;8.55;;;17.60;43.00;;;;;;931638;149;27346;-78
2023/03/01 10:06:49;;;;;;;12.40;8.00;;;17.20;43.40;;;;;;939475;149;27442;-78
2023/03/01 10:09:16;;;;;;;8.75;7.65;;;16.90;43.40;;;;;;934509;149;28285;-78
2023/03/01 10:11:44;;;;;;;8.95;8.03;;;16.50;43.60;;;;;;938617;149;27314;-78
2023/03/01 10:14:24;;;;;;;8.70;7.90;;;16.20;43.60;;;;;;924661;150;27462;-78
2023/03/01 10:16:53;;;;;;;10.15;9.15;;;15.90;43.40;;;;;;944480;150;27413;-78
2023/03/01 10:19:43;;;;;;;8.90;8.00;;;15.50;43.20;;;;;;925506;151;27432;-78
2023/03/01 10:22:21;;;;;;;9.80;8.60;;;15.20;43.50;;;;;;944817;151;27378;-78
2023/03/01 10:24:46;;;;;;;9.23;8.33;;;14.80;43.90;;;;;;933913;152;27323;-78
2023/03/01 10:27:20;;;;;;;9.67;8.67;;;14.50;43.90;;;;;;936064;152;27379;-78
2023/03/01 10:29:53;;;;;;;10.17;8.77;;;14.20;44.00;;;;;;934447;152;27417;-78
2023/03/01 10:32:21;;;;;;;8.60;7.80;;;13.90;44.10;;;;;;934346;152;27366;-78
2023/03/01 10:34:46;;;;;;;8.53;7.73;;;13.60;44.20;;;;;;936583;152;27373;-77
2023/03/01 10:37:12;;;;;;;9.67;8.70;;;13.30;44.30;;;;;;935562;150;27376;-77
2023/03/01 10:39:39;;;;;;;9.17;8.27;;;13.10;44.70;;;;;;935806;152;27371;-77
2023/03/01 10:42:06;;;;;;;11.07;8.53;;;12.90;45.10;;;;;;942821;151;27332;-77
2023/03/01 10:44:44;;;;;;;9.53;8.20;;;12.60;45.40;;;;;;941603;151;27332;-78
2023/03/01 10:47:14;;;;;;;9.23;8.23;;;12.50;45.70;;;;;;935092;152;27391;-78
2023/03/01 10:49:40;;;;;;;10.30;8.87;;;12.40;45.90;;;;;;933618;152;27282;-78
2023/03/01 10:52:18;;;;;;;10.00;7.77;;;12.30;46.00;;;;;;933225;152;28258;-78
2023/03/01 10:54:45;;;;;;;9.83;8.43;;;12.10;46.10;;;;;;934446;151;27391;-78
2023/03/01 10:57:11;;;;;;;9.07;8.10;;;12.00;46.20;;;;;;934016;151;27468;-78
2023/03/01 10:59:38;;;;;;;8.27;7.47;;;11.90;46.30;;;;;;931735;151;27325;-77
2023/03/01 11:02:29;;;;;;;8.80;7.90;;;11.80;47.00;;;;;;933092;152;27327;-78
2023/03/01 11:05:01;;;;;;;10.77;8.07;;;11.70;46.40;;;;;;936132;150;27400;-78
2023/03/01 11:07:28;;;;;;;8.93;8.03;;;11.60;46.50;;;;;;935276;151;27482;-78
2023/03/01 11:09:54;;;;;;;8.70;7.10;;;11.50;46.40;;;;;;935498;151;27282;-77
2023/03/01 11:12:21;;;;;;;8.07;7.27;;;11.40;46.50;;;;;;934430;151;27279;-78
2023/03/01 11:14:50;;;;;;;15.57;8.10;;;11.30;46.60;;;;;;935149;151;27358;-77
2023/03/01 11:17:25;;;;;;;8.03;7.23;;;11.20;46.60;;;;;;932934;152;27795;-78
2023/03/01 11:20:13;;;;;;;8.67;7.10;;;11.20;46.80;;;;;;934312;151;27404;-78
2023/03/01 11:22:42;;;;;;;9.70;7.37;;;11.10;46.90;;;;;;920509;152;27303;-77
2023/03/01 11:25:09;;;;;;;8.30;7.33;;;11.10;47.00;;;;;;942404;148;27420;-77
2023/03/01 11:27:35;;;;;;;7.40;6.73;;;11.00;47.00;;;;;;926169;151;27353;-77
2023/03/01 11:30:27;;;;;;;7.67;6.93;;;11.00;47.20;;;;;;932461;151;27323;-77
2023/03/01 11:32:53;;;;;;;9.83;7.77;;;11.00;47.30;;;;;;931860;151;27336;-78
2023/03/01 11:35:20;;;;;;;7.83;7.03;;;11.00;47.30;;;;;;922661;152;27492;-77
2023/03/01 11:38:11;;;;;;;7.77;7.00;;;11.00;47.20;;;;;;933230;150;27339;-77
2023/03/01 11:40:46;;;;;;;8.30;7.50;;;10.90;47.20;;;;;;933540;152;27878;-77
2023/03/01 11:43:34;;;;;;;7.97;7.23;;;10.90;47.30;;;;;;933049;152;27405;-77
2023/03/01 11:46:00;;;;;;;11.50;7.07;;;10.80;47.30;;;;;;935043;152;27383;-77
2023/03/01 11:48:29;;;;;;;10.33;6.90;;;10.80;47.30;;;;;;934248;153;27312;-77
2023/03/01 11:50:56;;;;;;;7.90;6.80;;;10.80;47.30;;;;;;933365;151;27361;-77
2023/03/01 11:53:28;;;;;;;8.67;6.60;;;10.80;47.80;;;;;;932185;152;27330;-78
2023/03/01 11:55:58;;;;;;;8.50;7.23;;;10.80;47.50;;;;;;932907;150;27310;-77
2023/03/01 11:58:36;;;;;;;7.00;6.30;;;10.80;47.50;;;;;;934100;152;27283;-78
2023/03/01 12:01:04;;;;;;;8.37;6.73;;;10.80;47.50;;;;;;932409;150;27349;-78
2023/03/01 12:03:38;;;;;;;9.13;7.17;;;10.80;47.50;;;;;;930764;151;27809;-77
2023/03/01 12:06:07;;;;;;;7.57;6.77;;;10.80;48.00;;;;;;927807;152;27489;-77
2023/03/01 12:08:40;;;;;;;7.03;6.13;;;10.80;47.50;;;;;;941005;151;27340;-77
2023/03/01 12:11:25;;;;;;;7.20;6.50;;;10.80;47.50;;;;;;932505;152;27338;-77
2023/03/01 12:14:19;;;;;;;8.87;7.00;;;10.80;47.50;;;;;;941901;151;27457;-78
2023/03/01 12:17:16;;;;;;;8.20;6.20;;;10.80;47.40;;;;;;942739;148;27407;-78
2023/03/01 12:19:52;;;;;;;6.13;5.53;;;10.90;47.40;;;;;;943784;148;27765;-80
2023/03/01 12:22:30;;;;;;;6.90;6.20;;;10.90;47.30;;;;;;943465;148;27427;-78
2023/03/01 12:25:00;;;;;;;6.13;5.20;;;10.90;47.20;;;;;;942849;148;27360;-78
2023/03/01 12:27:50;;;;;;;8.07;5.87;;;10.90;47.20;;;;;;942271;148;27389;-78
2023/03/01 12:30:38;;;;;;;7.57;6.73;;;10.90;47.00;;;;;;944091;148;27337;-79
2023/03/01 12:33:23;;;;;;;7.27;6.00;;;11.00;47.10;;;;;;941844;148;27442;-78
2023/03/01 12:35:58;;;;;;;7.23;6.37;;;11.00;47.10;;;;;;943013;148;27394;-78
2023/03/01 12:38:37;;;;;;;6.27;5.67;;;11.00;47.10;;;;;;941044;148;27382;-77
2023/03/01 12:41:42;;;;;;;9.73;5.83;;;11.00;47.00;;;;;;931615;149;27321;-78
2023/03/01 12:44:29;;;;;;;6.27;5.67;;;11.00;46.90;;;;;;949954;146;27358;-78
2023/03/01 12:47:14;;;;;;;7.00;5.77;;;11.00;47.00;;;;;;946148;148;27360;-79
2023/03/01 12:49:43;;;;;;;6.20;5.60;;;11.00;46.90;;;;;;927789;150;27883;-78
2023/03/01 12:52:10;;;;;;;6.40;5.60;;;11.00;46.80;;;;;;948657;146;27401;-78
2023/03/01 12:54:37;;;;;;;8.63;6.60;;;11.00;46.80;;;;;;943787;148;27453;-77
2023/03/01 12:57:03;;;;;;;6.77;5.70;;;11.00;46.80;;;;;;942315;148;27360;-77
2023/03/01 12:59:37;;;;;;;5.37;4.87;;;11.00;46.80;;;;;;941442;148;27411;-77